sensor_id;sensor_type;location;lat;lon;timestamp;temperature;humidity
21037;DHT22;10677;50.942;4.028;2022-10-22T00:01:52;16.20;99.90
21037;DHT22;10677;50.942;4.028;2022-10-22T00:04:18;16.10;99.90
21037;DHT22;10677;50.942;4.028;2022-10-22T00:06:44;16.20;99.90
21037;DHT22;10677;50.942;4.028;2022-10-22T00:09:11;16.20;99.90
21037;DHT22;10677;50.942;4.028;2022-10-22T00:11:37;16.20;99.90
21037;DHT22;10677;50.942;4.028;2022-10-22T00:14:03;16.20;99.90
21037;DHT22;10677;50.942;4.028;2022-10-22T00:16:29;16.20;99.90
21037;DHT22;10677;50.942;4.028;2022-10-22T00:18:54;16.20;99.90
21037;DHT22;10677;50.942;4.028;2022-10-22T00:21:20;16.20;99.90
21037;DHT22;10677;50.942;4.028;2022-10-22T00:23:46;16.10;99.90
21037;DHT22;10677;50.942;4.028;2022-10-22T00:26:12;16.10;99.90
21037;DHT22;10677;50.942;4.028;2022-10-22T00:28:38;16.20;99.90
21037;DHT22;10677;50.942;4.028;2022-10-22T00:31:03;16.20;99.90
21037;DHT22;10677;50.942;4.028;2022-10-22T00:33:30;16.10;99.90
21037;DHT22;10677;50.942;4.028;2022-10-22T00:35:56;16.10;99.90
21037;DHT22;10677;50.942;4.028;2022-10-22T00:38:22;16.10;99.90
21037;DHT22;10677;50.942;4.028;2022-10-22T00:40:48;16.10;99.90
21037;DHT22;10677;50.942;4.028;2022-10-22T00:43:16;16.10;99.90
21037;DHT22;10677;50.942;4.028;2022-10-22T00:45:42;16.20;99.90
21037;DHT22;10677;50.942;4.028;2022-10-22T00:48:14;16.10;99.90
21037;DHT22;10677;50.942;4.028;2022-10-22T00:50:49;16.20;99.90
21037;DHT22;10677;50.942;4.028;2022-10-22T00:53:28;16.20;99.90
21037;DHT22;10677;50.942;4.028;2022-10-22T00:55:54;16.20;99.90
21037;DHT22;10677;50.942;4.028;2022-10-22T00:58:23;16.20;99.90
21037;DHT22;10677;50.942;4.028;2022-10-22T01:00:50;16.20;99.90
21037;DHT22;10677;50.942;4.028;2022-10-22T01:03:16;16.20;99.90
21037;DHT22;10677;50.942;4.028;2022-10-22T01:17:21;16.10;99.90
21037;DHT22;10677;50.942;4.028;2022-10-22T01:30:36;16.10;99.90
21037;DHT22;10677;50.942;4.028;2022-10-22T01:33:05;16.00;99.90
21037;DHT22;10677;50.942;4.028;2022-10-22T01:35:34;16.00;99.90
21037;DHT22;10677;50.942;4.028;2022-10-22T01:38:03;16.00;99.90
21037;DHT22;10677;50.942;4.028;2022-10-22T01:40:31;16.00;99.90
21037;DHT22;10677;50.942;4.028;2022-10-22T01:42:58;16.00;99.90
21037;DHT22;10677;50.942;4.028;2022-10-22T01:45:25;15.90;99.90
21037;DHT22;10677;50.942;4.028;2022-10-22T01:53:31;15.80;99.90
21037;DHT22;10677;50.942;4.028;2022-10-22T01:56:27;15.80;99.90
21037;DHT22;10677;50.942;4.028;2022-10-22T02:02:40;15.80;99.90
21037;DHT22;10677;50.942;4.028;2022-10-22T02:05:21;15.80;99.90
21037;DHT22;10677;50.942;4.028;2022-10-22T02:08:04;15.80;99.90
21037;DHT22;10677;50.942;4.028;2022-10-22T02:10:32;15.70;99.90
21037;DHT22;10677;50.942;4.028;2022-10-22T02:12:59;15.70;99.90
21037;DHT22;10677;50.942;4.028;2022-10-22T02:15:28;15.70;99.90
21037;DHT22;10677;50.942;4.028;2022-10-22T02:17:57;15.70;99.90
21037;DHT22;10677;50.942;4.028;2022-10-22T02:20:27;15.70;99.90
21037;DHT22;10677;50.942;4.028;2022-10-22T02:22:54;15.60;99.90
21037;DHT22;10677;50.942;4.028;2022-10-22T02:25:21;15.70;99.90
21037;DHT22;10677;50.942;4.028;2022-10-22T02:27:55;15.60;99.90
21037;DHT22;10677;50.942;4.028;2022-10-22T02:30:25;15.60;99.90
21037;DHT22;10677;50.942;4.028;2022-10-22T02:33:01;15.60;99.90
21037;DHT22;10677;50.942;4.028;2022-10-22T02:35:29;15.50;99.90
21037;DHT22;10677;50.942;4.028;2022-10-22T02:37:56;15.60;99.90
21037;DHT22;10677;50.942;4.028;2022-10-22T02:40:23;15.50;99.90
21037;DHT22;10677;50.942;4.028;2022-10-22T02:42:49;15.60;99.90
21037;DHT22;10677;50.942;4.028;2022-10-22T02:45:16;15.60;99.90
21037;DHT22;10677;50.942;4.028;2022-10-22T02:47:43;15.50;99.90
21037;DHT22;10677;50.942;4.028;2022-10-22T02:50:09;15.50;99.90
21037;DHT22;10677;50.942;4.028;2022-10-22T02:52:35;15.50;99.90
21037;DHT22;10677;50.942;4.028;2022-10-22T02:55:01;15.50;99.90
21037;DHT22;10677;50.942;4.028;2022-10-22T02:57:26;15.50;99.90
21037;DHT22;10677;50.942;4.028;2022-10-22T02:59:52;15.50;99.90
21037;DHT22;10677;50.942;4.028;2022-10-22T03:02:18;15.50;99.90
21037;DHT22;10677;50.942;4.028;2022-10-22T03:04:43;15.50;99.90
21037;DHT22;10677;50.942;4.028;2022-10-22T03:07:09;15.50;99.90
21037;DHT22;10677;50.942;4.028;2022-10-22T03:09:34;15.50;99.90
21037;DHT22;10677;50.942;4.028;2022-10-22T03:12:00;15.60;99.90
21037;DHT22;10677;50.942;4.028;2022-10-22T03:14:27;15.60;99.90
21037;DHT22;10677;50.942;4.028;2022-10-22T03:16:52;15.60;99.90
21037;DHT22;10677;50.942;4.028;2022-10-22T03:19:18;15.60;99.90
21037;DHT22;10677;50.942;4.028;2022-10-22T03:21:51;15.60;99.90
21037;DHT22;10677;50.942;4.028;2022-10-22T03:24:42;15.70;99.90
21037;DHT22;10677;50.942;4.028;2022-10-22T03:27:10;15.80;99.90
21037;DHT22;10677;50.942;4.028;2022-10-22T03:29:39;15.70;99.90
21037;DHT22;10677;50.942;4.028;2022-10-22T03:32:05;15.70;99.90
21037;DHT22;10677;50.942;4.028;2022-10-22T03:34:31;15.70;99.90
21037;DHT22;10677;50.942;4.028;2022-10-22T03:36:58;15.60;99.90
21037;DHT22;10677;50.942;4.028;2022-10-22T03:39:25;15.60;99.90
21037;DHT22;10677;50.942;4.028;2022-10-22T03:41:52;15.60;99.90
21037;DHT22;10677;50.942;4.028;2022-10-22T03:44:18;15.50;99.90
21037;DHT22;10677;50.942;4.028;2022-10-22T03:46:44;15.50;99.90
21037;DHT22;10677;50.942;4.028;2022-10-22T03:49:10;15.50;99.90
21037;DHT22;10677;50.942;4.028;2022-10-22T03:51:36;15.50;99.90
21037;DHT22;10677;50.942;4.028;2022-10-22T03:54:02;15.50;99.90
21037;DHT22;10677;50.942;4.028;2022-10-22T03:56:27;15.60;99.90
21037;DHT22;10677;50.942;4.028;2022-10-22T03:58:55;15.60;99.90
21037;DHT22;10677;50.942;4.028;2022-10-22T04:01:22;15.70;99.90
21037;DHT22;10677;50.942;4.028;2022-10-22T04:03:47;15.70;99.90
21037;DHT22;10677;50.942;4.028;2022-10-22T04:06:13;15.70;99.90
21037;DHT22;10677;50.942;4.028;2022-10-22T04:08:39;15.70;99.90
21037;DHT22;10677;50.942;4.028;2022-10-22T04:11:06;15.60;99.90
21037;DHT22;10677;50.942;4.028;2022-10-22T04:13:31;15.60;99.90
21037;DHT22;10677;50.942;4.028;2022-10-22T04:16:10;15.70;99.90
21037;DHT22;10677;50.942;4.028;2022-10-22T04:18:36;15.60;99.90
21037;DHT22;10677;50.942;4.028;2022-10-22T04:21:02;15.60;99.90
21037;DHT22;10677;50.942;4.028;2022-10-22T04:23:28;15.60;99.90
21037;DHT22;10677;50.942;4.028;2022-10-22T04:25:58;15.60;99.90
21037;DHT22;10677;50.942;4.028;2022-10-22T04:28:24;15.60;99.90
21037;DHT22;10677;50.942;4.028;2022-10-22T04:30:49;15.60;99.90
21037;DHT22;10677;50.942;4.028;2022-10-22T04:33:15;15.50;99.90
21037;DHT22;10677;50.942;4.028;2022-10-22T04:35:41;15.50;99.90
21037;DHT22;10677;50.942;4.028;2022-10-22T04:38:06;15.50;99.90
21037;DHT22;10677;50.942;4.028;2022-10-22T04:40:32;15.50;99.90
21037;DHT22;10677;50.942;4.028;2022-10-22T04:42:57;15.50;99.90
21037;DHT22;10677;50.942;4.028;2022-10-22T04:45:23;15.50;99.90
21037;DHT22;10677;50.942;4.028;2022-10-22T04:47:48;15.50;99.90
21037;DHT22;10677;50.942;4.028;2022-10-22T04:50:14;15.50;99.90
21037;DHT22;10677;50.942;4.028;2022-10-22T04:52:40;15.50;99.90
21037;DHT22;10677;50.942;4.028;2022-10-22T04:55:06;15.50;99.90
21037;DHT22;10677;50.942;4.028;2022-10-22T04:57:31;15.50;99.90
21037;DHT22;10677;50.942;4.028;2022-10-22T04:59:57;15.50;99.90
21037;DHT22;10677;50.942;4.028;2022-10-22T05:02:23;15.50;99.90
21037;DHT22;10677;50.942;4.028;2022-10-22T05:04:48;15.50;99.90
21037;DHT22;10677;50.942;4.028;2022-10-22T05:07:14;15.50;99.90
21037;DHT22;10677;50.942;4.028;2022-10-22T05:09:40;15.50;99.90
21037;DHT22;10677;50.942;4.028;2022-10-22T05:12:05;15.50;99.90
21037;DHT22;10677;50.942;4.028;2022-10-22T05:14:32;15.60;99.90
21037;DHT22;10677;50.942;4.028;2022-10-22T05:16:59;15.60;99.90
21037;DHT22;10677;50.942;4.028;2022-10-22T05:19:26;15.50;99.90
21037;DHT22;10677;50.942;4.028;2022-10-22T05:21:55;15.40;99.90
21037;DHT22;10677;50.942;4.028;2022-10-22T05:24:21;15.40;99.90
21037;DHT22;10677;50.942;4.028;2022-10-22T05:26:50;15.40;99.90
21037;DHT22;10677;50.942;4.028;2022-10-22T05:29:16;15.30;99.90
21037;DHT22;10677;50.942;4.028;2022-10-22T05:31:42;15.30;99.90
21037;DHT22;10677;50.942;4.028;2022-10-22T05:34:07;15.30;99.90
21037;DHT22;10677;50.942;4.028;2022-10-22T05:36:33;15.30;99.90
21037;DHT22;10677;50.942;4.028;2022-10-22T05:38:59;15.30;99.90
21037;DHT22;10677;50.942;4.028;2022-10-22T05:41:26;15.30;99.90
21037;DHT22;10677;50.942;4.028;2022-10-22T05:43:57;15.40;99.90
21037;DHT22;10677;50.942;4.028;2022-10-22T05:46:25;15.40;99.90
21037;DHT22;10677;50.942;4.028;2022-10-22T05:48:58;15.40;99.90
21037;DHT22;10677;50.942;4.028;2022-10-22T05:51:26;15.30;99.90
21037;DHT22;10677;50.942;4.028;2022-10-22T05:53:58;15.40;99.90
21037;DHT22;10677;50.942;4.028;2022-10-22T05:56:24;15.50;99.90
21037;DHT22;10677;50.942;4.028;2022-10-22T05:58:50;15.60;99.90
21037;DHT22;10677;50.942;4.028;2022-10-22T06:01:24;15.70;99.90
21037;DHT22;10677;50.942;4.028;2022-10-22T06:03:56;15.70;99.90
21037;DHT22;10677;50.942;4.028;2022-10-22T06:09:06;15.80;99.90
21037;DHT22;10677;50.942;4.028;2022-10-22T06:11:32;15.90;99.90
21037;DHT22;10677;50.942;4.028;2022-10-22T06:13:58;15.90;99.90
21037;DHT22;10677;50.942;4.028;2022-10-22T06:16:23;16.00;99.90
21037;DHT22;10677;50.942;4.028;2022-10-22T06:18:49;16.00;99.90
21037;DHT22;10677;50.942;4.028;2022-10-22T06:21:15;16.00;99.90
21037;DHT22;10677;50.942;4.028;2022-10-22T06:23:42;16.00;99.90
21037;DHT22;10677;50.942;4.028;2022-10-22T06:26:09;16.00;99.90
21037;DHT22;10677;50.942;4.028;2022-10-22T06:28:36;16.00;99.90
21037;DHT22;10677;50.942;4.028;2022-10-22T06:31:03;16.00;99.90
21037;DHT22;10677;50.942;4.028;2022-10-22T06:33:30;16.10;99.90
21037;DHT22;10677;50.942;4.028;2022-10-22T06:36:04;16.10;99.90
21037;DHT22;10677;50.942;4.028;2022-10-22T06:38:30;16.10;99.90
21037;DHT22;10677;50.942;4.028;2022-10-22T06:41:02;16.10;99.90
21037;DHT22;10677;50.942;4.028;2022-10-22T06:43:27;16.10;99.90
21037;DHT22;10677;50.942;4.028;2022-10-22T06:45:58;16.10;99.90
21037;DHT22;10677;50.942;4.028;2022-10-22T06:48:24;16.10;99.90
21037;DHT22;10677;50.942;4.028;2022-10-22T06:50:50;16.20;99.90
21037;DHT22;10677;50.942;4.028;2022-10-22T06:53:16;16.10;99.90
21037;DHT22;10677;50.942;4.028;2022-10-22T06:55:41;16.20;99.90
21037;DHT22;10677;50.942;4.028;2022-10-22T06:58:07;16.20;99.90
21037;DHT22;10677;50.942;4.028;2022-10-22T07:00:32;16.30;99.90
21037;DHT22;10677;50.942;4.028;2022-10-22T07:02:58;16.30;99.90
21037;DHT22;10677;50.942;4.028;2022-10-22T07:05:24;16.30;99.90
21037;DHT22;10677;50.942;4.028;2022-10-22T07:07:49;16.20;99.90
21037;DHT22;10677;50.942;4.028;2022-10-22T07:10:15;16.10;99.90
21037;DHT22;10677;50.942;4.028;2022-10-22T07:12:40;16.10;99.90
21037;DHT22;10677;50.942;4.028;2022-10-22T07:15:06;16.00;99.90
21037;DHT22;10677;50.942;4.028;2022-10-22T07:17:32;16.10;99.90
21037;DHT22;10677;50.942;4.028;2022-10-22T07:19:57;16.10;99.90
21037;DHT22;10677;50.942;4.028;2022-10-22T07:22:23;16.10;99.90
21037;DHT22;10677;50.942;4.028;2022-10-22T07:24:49;16.10;99.90
21037;DHT22;10677;50.942;4.028;2022-10-22T07:27:14;16.10;99.90
21037;DHT22;10677;50.942;4.028;2022-10-22T07:29:40;16.10;99.90
21037;DHT22;10677;50.942;4.028;2022-10-22T07:32:06;16.10;99.90
21037;DHT22;10677;50.942;4.028;2022-10-22T07:34:31;16.10;99.90
21037;DHT22;10677;50.942;4.028;2022-10-22T07:36:57;16.10;99.90
21037;DHT22;10677;50.942;4.028;2022-10-22T07:39:23;16.10;99.90
21037;DHT22;10677;50.942;4.028;2022-10-22T07:41:50;16.10;99.90
21037;DHT22;10677;50.942;4.028;2022-10-22T07:44:16;16.10;99.90
21037;DHT22;10677;50.942;4.028;2022-10-22T07:46:41;16.20;99.90
21037;DHT22;10677;50.942;4.028;2022-10-22T07:49:07;16.20;99.90
21037;DHT22;10677;50.942;4.028;2022-10-22T07:51:33;16.30;99.90
21037;DHT22;10677;50.942;4.028;2022-10-22T07:53:58;16.30;99.90
21037;DHT22;10677;50.942;4.028;2022-10-22T07:56:24;16.30;99.90
21037;DHT22;10677;50.942;4.028;2022-10-22T07:58:49;16.20;99.90
21037;DHT22;10677;50.942;4.028;2022-10-22T08:01:15;16.30;99.90
21037;DHT22;10677;50.942;4.028;2022-10-22T08:03:40;16.30;99.90
21037;DHT22;10677;50.942;4.028;2022-10-22T08:06:06;16.40;99.90
21037;DHT22;10677;50.942;4.028;2022-10-22T08:08:33;16.40;99.90
21037;DHT22;10677;50.942;4.028;2022-10-22T08:11:00;16.60;99.90
21037;DHT22;10677;50.942;4.028;2022-10-22T08:13:26;16.60;99.90
21037;DHT22;10677;50.942;4.028;2022-10-22T08:15:54;16.80;99.90
21037;DHT22;10677;50.942;4.028;2022-10-22T08:18:20;16.90;99.90
21037;DHT22;10677;50.942;4.028;2022-10-22T08:20:45;17.00;99.90
21037;DHT22;10677;50.942;4.028;2022-10-22T08:23:11;16.90;99.90
21037;DHT22;10677;50.942;4.028;2022-10-22T08:25:36;16.80;99.90
21037;DHT22;10677;50.942;4.028;2022-10-22T08:28:02;16.80;99.90
21037;DHT22;10677;50.942;4.028;2022-10-22T08:30:28;16.80;99.90
21037;DHT22;10677;50.942;4.028;2022-10-22T08:32:54;16.80;99.90
21037;DHT22;10677;50.942;4.028;2022-10-22T08:35:20;16.70;99.90
21037;DHT22;10677;50.942;4.028;2022-10-22T08:37:46;16.60;99.90
21037;DHT22;10677;50.942;4.028;2022-10-22T08:40:31;16.60;99.90
21037;DHT22;10677;50.942;4.028;2022-10-22T08:43:23;16.60;99.90
21037;DHT22;10677;50.942;4.028;2022-10-22T08:49:06;16.50;99.90
21037;DHT22;10677;50.942;4.028;2022-10-22T08:51:34;16.60;99.90
21037;DHT22;10677;50.942;4.028;2022-10-22T08:56:30;16.70;99.90
21037;DHT22;10677;50.942;4.028;2022-10-22T08:59:08;16.80;99.90
21037;DHT22;10677;50.942;4.028;2022-10-22T09:01:38;17.00;99.90
21037;DHT22;10677;50.942;4.028;2022-10-22T09:04:35;17.00;99.90
21037;DHT22;10677;50.942;4.028;2022-10-22T09:07:02;17.20;99.90
21037;DHT22;10677;50.942;4.028;2022-10-22T09:09:35;17.40;99.90
21037;DHT22;10677;50.942;4.028;2022-10-22T09:12:04;17.60;99.90
21037;DHT22;10677;50.942;4.028;2022-10-22T09:14:30;17.80;99.90
21037;DHT22;10677;50.942;4.028;2022-10-22T09:27:34;17.60;99.90
21037;DHT22;10677;50.942;4.028;2022-10-22T09:30:00;17.50;99.90
21037;DHT22;10677;50.942;4.028;2022-10-22T09:32:26;17.50;99.90
21037;DHT22;10677;50.942;4.028;2022-10-22T09:34:56;17.40;99.90
21037;DHT22;10677;50.942;4.028;2022-10-22T09:37:26;17.50;99.90
21037;DHT22;10677;50.942;4.028;2022-10-22T09:39:54;17.50;99.90
21037;DHT22;10677;50.942;4.028;2022-10-22T09:42:20;17.60;99.90
21037;DHT22;10677;50.942;4.028;2022-10-22T09:44:52;17.70;99.90
21037;DHT22;10677;50.942;4.028;2022-10-22T09:53:40;17.80;99.90
21037;DHT22;10677;50.942;4.028;2022-10-22T09:58:50;18.00;99.90
21037;DHT22;10677;50.942;4.028;2022-10-22T10:01:19;18.00;99.90
21037;DHT22;10677;50.942;4.028;2022-10-22T10:03:47;18.00;99.90
21037;DHT22;10677;50.942;4.028;2022-10-22T10:06:17;18.00;99.90
21037;DHT22;10677;50.942;4.028;2022-10-22T10:08:43;18.00;99.90
21037;DHT22;10677;50.942;4.028;2022-10-22T10:11:28;18.10;99.90
21037;DHT22;10677;50.942;4.028;2022-10-22T10:19:43;18.50;99.90
21037;DHT22;10677;50.942;4.028;2022-10-22T10:30:19;19.50;99.90
21037;DHT22;10677;50.942;4.028;2022-10-22T10:35:53;19.60;99.90
21037;DHT22;10677;50.942;4.028;2022-10-22T10:44:02;19.80;99.90
21037;DHT22;10677;50.942;4.028;2022-10-22T10:49:31;19.90;99.90
21037;DHT22;10677;50.942;4.028;2022-10-22T10:55:07;20.10;99.90
21037;DHT22;10677;50.942;4.028;2022-10-22T11:01:00;19.70;99.90
21037;DHT22;10677;50.942;4.028;2022-10-22T11:06:24;19.70;99.90
21037;DHT22;10677;50.942;4.028;2022-10-22T11:08:56;19.60;99.90
21037;DHT22;10677;50.942;4.028;2022-10-22T11:11:35;19.70;99.90
21037;DHT22;10677;50.942;4.028;2022-10-22T11:16:54;19.60;99.90
21037;DHT22;10677;50.942;4.028;2022-10-22T11:22:31;19.80;99.90
21037;DHT22;10677;50.942;4.028;2022-10-22T11:27:49;20.20;99.90
21037;DHT22;10677;50.942;4.028;2022-10-22T11:30:22;20.20;99.90
21037;DHT22;10677;50.942;4.028;2022-10-22T11:33:00;20.10;99.90
21037;DHT22;10677;50.942;4.028;2022-10-22T11:35:39;20.00;99.90
21037;DHT22;10677;50.942;4.028;2022-10-22T11:38:07;20.00;99.90
21037;DHT22;10677;50.942;4.028;2022-10-22T11:40:56;19.90;99.90
21037;DHT22;10677;50.942;4.028;2022-10-22T11:43:50;19.70;99.90
21037;DHT22;10677;50.942;4.028;2022-10-22T11:48:41;19.80;99.90
21037;DHT22;10677;50.942;4.028;2022-10-22T11:51:30;19.90;99.90
21037;DHT22;10677;50.942;4.028;2022-10-22T11:53:57;19.90;99.90
21037;DHT22;10677;50.942;4.028;2022-10-22T11:56:26;19.90;99.90
21037;DHT22;10677;50.942;4.028;2022-10-22T11:59:00;20.00;99.90
21037;DHT22;10677;50.942;4.028;2022-10-22T12:01:28;19.90;99.90
21037;DHT22;10677;50.942;4.028;2022-10-22T12:04:18;19.90;99.90
21037;DHT22;10677;50.942;4.028;2022-10-22T12:06:55;20.00;99.90
21037;DHT22;10677;50.942;4.028;2022-10-22T12:09:23;20.30;99.90
21037;DHT22;10677;50.942;4.028;2022-10-22T12:11:51;20.30;99.90
21037;DHT22;10677;50.942;4.028;2022-10-22T12:14:24;20.40;99.90
21037;DHT22;10677;50.942;4.028;2022-10-22T12:17:02;20.50;99.90
21037;DHT22;10677;50.942;4.028;2022-10-22T12:19:34;20.40;99.90
21037;DHT22;10677;50.942;4.028;2022-10-22T12:22:30;20.30;99.90
21037;DHT22;10677;50.942;4.028;2022-10-22T12:25:01;20.20;99.90
21037;DHT22;10677;50.942;4.028;2022-10-22T12:27:39;20.30;99.90
21037;DHT22;10677;50.942;4.028;2022-10-22T12:32:43;20.20;99.90
21037;DHT22;10677;50.942;4.028;2022-10-22T12:35:15;20.10;99.90
21037;DHT22;10677;50.942;4.028;2022-10-22T12:37:41;20.10;99.90
21037;DHT22;10677;50.942;4.028;2022-10-22T12:40:18;20.00;99.90
21037;DHT22;10677;50.942;4.028;2022-10-22T12:45:18;20.30;99.90
21037;DHT22;10677;50.942;4.028;2022-10-22T12:47:51;20.50;99.90
21037;DHT22;10677;50.942;4.028;2022-10-22T12:50:24;20.70;99.90
21037;DHT22;10677;50.942;4.028;2022-10-22T12:52:53;20.90;99.90
21037;DHT22;10677;50.942;4.028;2022-10-22T12:55:21;21.00;99.90
21037;DHT22;10677;50.942;4.028;2022-10-22T12:57:50;21.10;99.90
21037;DHT22;10677;50.942;4.028;2022-10-22T13:00:21;21.30;99.90
21037;DHT22;10677;50.942;4.028;2022-10-22T13:02:46;21.20;99.90
21037;DHT22;10677;50.942;4.028;2022-10-22T13:05:32;21.20;99.90
21037;DHT22;10677;50.942;4.028;2022-10-22T13:08:10;21.20;99.90
21037;DHT22;10677;50.942;4.028;2022-10-22T13:10:39;21.10;99.90
21037;DHT22;10677;50.942;4.028;2022-10-22T13:13:05;21.10;99.90
21037;DHT22;10677;50.942;4.028;2022-10-22T13:15:37;21.10;99.90
21037;DHT22;10677;50.942;4.028;2022-10-22T13:18:22;21.20;99.90
21037;DHT22;10677;50.942;4.028;2022-10-22T13:20:55;21.30;99.90
21037;DHT22;10677;50.942;4.028;2022-10-22T13:23:23;21.60;99.90
21037;DHT22;10677;50.942;4.028;2022-10-22T13:26:12;21.70;99.90
21037;DHT22;10677;50.942;4.028;2022-10-22T13:28:39;21.60;99.90
21037;DHT22;10677;50.942;4.028;2022-10-22T13:31:14;21.50;99.90
21037;DHT22;10677;50.942;4.028;2022-10-22T13:33:43;21.40;99.90
21037;DHT22;10677;50.942;4.028;2022-10-22T13:36:14;21.20;99.90
21037;DHT22;10677;50.942;4.028;2022-10-22T13:38:41;21.20;99.90
21037;DHT22;10677;50.942;4.028;2022-10-22T13:41:27;21.20;99.90
21037;DHT22;10677;50.942;4.028;2022-10-22T13:43:55;21.10;99.90
21037;DHT22;10677;50.942;4.028;2022-10-22T13:46:21;21.10;99.90
21037;DHT22;10677;50.942;4.028;2022-10-22T13:48:48;21.20;99.90
21037;DHT22;10677;50.942;4.028;2022-10-22T13:51:32;21.30;99.90
21037;DHT22;10677;50.942;4.028;2022-10-22T13:53:59;21.40;99.90
21037;DHT22;10677;50.942;4.028;2022-10-22T13:56:25;21.50;99.90
21037;DHT22;10677;50.942;4.028;2022-10-22T13:58:51;21.40;99.90
21037;DHT22;10677;50.942;4.028;2022-10-22T14:01:25;21.30;99.90
21037;DHT22;10677;50.942;4.028;2022-10-22T14:03:53;21.20;99.90
21037;DHT22;10677;50.942;4.028;2022-10-22T14:06:21;21.30;99.90
21037;DHT22;10677;50.942;4.028;2022-10-22T14:08:49;21.40;99.90
21037;DHT22;10677;50.942;4.028;2022-10-22T14:11:18;21.70;99.90
21037;DHT22;10677;50.942;4.028;2022-10-22T14:13:44;22.50;99.90
21037;DHT22;10677;50.942;4.028;2022-10-22T14:16:22;22.70;99.90
21037;DHT22;10677;50.942;4.028;2022-10-22T14:18:49;22.90;99.90
21037;DHT22;10677;50.942;4.028;2022-10-22T14:21:16;23.10;99.90
21037;DHT22;10677;50.942;4.028;2022-10-22T14:23:44;22.80;99.90
21037;DHT22;10677;50.942;4.028;2022-10-22T14:26:29;22.70;99.90
21037;DHT22;10677;50.942;4.028;2022-10-22T14:28:57;22.60;99.90
21037;DHT22;10677;50.942;4.028;2022-10-22T14:31:23;22.50;99.90
21037;DHT22;10677;50.942;4.028;2022-10-22T14:33:49;22.80;99.90
21037;DHT22;10677;50.942;4.028;2022-10-22T14:36:16;23.50;99.90
21037;DHT22;10677;50.942;4.028;2022-10-22T14:38:43;24.10;99.90
21037;DHT22;10677;50.942;4.028;2022-10-22T14:41:24;24.30;99.90
21037;DHT22;10677;50.942;4.028;2022-10-22T14:43:51;25.00;99.90
21037;DHT22;10677;50.942;4.028;2022-10-22T14:46:18;25.40;99.90
21037;DHT22;10677;50.942;4.028;2022-10-22T14:48:43;25.70;99.90
21037;DHT22;10677;50.942;4.028;2022-10-22T14:51:19;25.90;99.90
21037;DHT22;10677;50.942;4.028;2022-10-22T14:53:46;25.90;99.90
21037;DHT22;10677;50.942;4.028;2022-10-22T14:56:13;26.00;99.90
21037;DHT22;10677;50.942;4.028;2022-10-22T14:58:39;25.80;99.90
21037;DHT22;10677;50.942;4.028;2022-10-22T15:01:05;25.20;99.90
21037;DHT22;10677;50.942;4.028;2022-10-22T15:03:31;24.70;99.90
21037;DHT22;10677;50.942;4.028;2022-10-22T15:05:57;24.40;99.90
21037;DHT22;10677;50.942;4.028;2022-10-22T15:08:22;24.10;99.90
21037;DHT22;10677;50.942;4.028;2022-10-22T15:11:11;23.90;99.90
21037;DHT22;10677;50.942;4.028;2022-10-22T15:13:37;23.70;99.90
21037;DHT22;10677;50.942;4.028;2022-10-22T15:16:07;23.40;99.90
21037;DHT22;10677;50.942;4.028;2022-10-22T15:18:33;23.30;99.90
21037;DHT22;10677;50.942;4.028;2022-10-22T15:21:02;23.20;99.90
21037;DHT22;10677;50.942;4.028;2022-10-22T15:23:28;23.20;99.90
21037;DHT22;10677;50.942;4.028;2022-10-22T15:25:54;23.20;99.90
21037;DHT22;10677;50.942;4.028;2022-10-22T15:28:20;23.40;99.90
21037;DHT22;10677;50.942;4.028;2022-10-22T15:30:53;23.60;99.90
21037;DHT22;10677;50.942;4.028;2022-10-22T15:33:19;23.80;99.90
21037;DHT22;10677;50.942;4.028;2022-10-22T15:35:45;23.80;99.90
21037;DHT22;10677;50.942;4.028;2022-10-22T15:38:10;23.80;99.90
21037;DHT22;10677;50.942;4.028;2022-10-22T15:40:36;23.60;99.90
21037;DHT22;10677;50.942;4.028;2022-10-22T15:43:01;23.30;99.90
21037;DHT22;10677;50.942;4.028;2022-10-22T15:45:27;23.20;99.90
21037;DHT22;10677;50.942;4.028;2022-10-22T15:47:53;22.90;99.90
21037;DHT22;10677;50.942;4.028;2022-10-22T15:50:18;22.70;99.90
21037;DHT22;10677;50.942;4.028;2022-10-22T15:52:44;22.50;99.90
21037;DHT22;10677;50.942;4.028;2022-10-22T15:55:09;22.30;99.90
21037;DHT22;10677;50.942;4.028;2022-10-22T15:57:36;22.10;99.90
21037;DHT22;10677;50.942;4.028;2022-10-22T16:00:03;22.00;99.90
21037;DHT22;10677;50.942;4.028;2022-10-22T16:02:29;21.70;99.90
21037;DHT22;10677;50.942;4.028;2022-10-22T16:04:55;21.60;99.90
21037;DHT22;10677;50.942;4.028;2022-10-22T16:07:21;21.50;99.90
21037;DHT22;10677;50.942;4.028;2022-10-22T16:09:46;21.40;99.90
21037;DHT22;10677;50.942;4.028;2022-10-22T16:12:12;21.30;99.90
21037;DHT22;10677;50.942;4.028;2022-10-22T16:14:38;21.10;99.90
21037;DHT22;10677;50.942;4.028;2022-10-22T16:17:04;20.90;99.90
21037;DHT22;10677;50.942;4.028;2022-10-22T16:19:29;20.80;99.90
21037;DHT22;10677;50.942;4.028;2022-10-22T16:21:55;20.70;99.90
21037;DHT22;10677;50.942;4.028;2022-10-22T16:24:23;20.50;99.90
21037;DHT22;10677;50.942;4.028;2022-10-22T16:26:49;20.40;99.90
21037;DHT22;10677;50.942;4.028;2022-10-22T16:29:15;20.30;99.90
21037;DHT22;10677;50.942;4.028;2022-10-22T16:31:41;20.10;99.90
21037;DHT22;10677;50.942;4.028;2022-10-22T16:34:08;20.10;99.90
21037;DHT22;10677;50.942;4.028;2022-10-22T16:36:34;20.00;99.90
21037;DHT22;10677;50.942;4.028;2022-10-22T16:39:00;19.90;99.90
21037;DHT22;10677;50.942;4.028;2022-10-22T16:41:26;19.80;99.90
21037;DHT22;10677;50.942;4.028;2022-10-22T16:44:00;19.70;99.90
21037;DHT22;10677;50.942;4.028;2022-10-22T16:46:27;19.60;99.90
21037;DHT22;10677;50.942;4.028;2022-10-22T16:48:53;19.50;99.90
21037;DHT22;10677;50.942;4.028;2022-10-22T16:51:22;19.40;99.90
21037;DHT22;10677;50.942;4.028;2022-10-22T16:53:50;19.40;99.90
21037;DHT22;10677;50.942;4.028;2022-10-22T16:56:17;19.40;99.90
21037;DHT22;10677;50.942;4.028;2022-10-22T16:58:44;19.20;99.90
21037;DHT22;10677;50.942;4.028;2022-10-22T17:01:10;19.10;99.90
21037;DHT22;10677;50.942;4.028;2022-10-22T17:03:36;19.00;99.90
21037;DHT22;10677;50.942;4.028;2022-10-22T17:06:02;18.90;99.90
21037;DHT22;10677;50.942;4.028;2022-10-22T17:08:29;18.90;99.90
21037;DHT22;10677;50.942;4.028;2022-10-22T17:10:55;18.80;99.90
21037;DHT22;10677;50.942;4.028;2022-10-22T17:13:21;18.80;99.90
21037;DHT22;10677;50.942;4.028;2022-10-22T17:15:46;18.80;99.90
21037;DHT22;10677;50.942;4.028;2022-10-22T17:18:12;18.60;99.90
21037;DHT22;10677;50.942;4.028;2022-10-22T17:20:42;18.60;99.90
21037;DHT22;10677;50.942;4.028;2022-10-22T17:23:08;18.50;99.90
21037;DHT22;10677;50.942;4.028;2022-10-22T17:25:41;18.50;99.90
21037;DHT22;10677;50.942;4.028;2022-10-22T17:28:09;18.50;99.90
21037;DHT22;10677;50.942;4.028;2022-10-22T17:30:35;18.40;99.90